< Typhoon 202121 2021 Season
Typhoon 202122 (RAI)
General InformationTrack Information on Google MapsDetailed Wind InformationForecast History on Google MapsAccess Analytics MapList of All Images || NewsDisaster Info.WeblogTrackbackTyphoon FrontTwiphoonTyphoon Now!Typhoon ImaginationJMA Disaster Info. XMLResourceGoogle EarthGE AnimationAtom FeedGeoJSON
Detalied Best Track (Time Zone = UTC)
Year Month Day Hour Lat. Long. Pressure (hPa) Wind (kt) Class Image Chart
2021 12 12 00 4.9 145.0 1004 30 2 Image Chart
2021 12 12 03 5.6 145.0 1002 30 2 Image Chart
2021 12 12 06 5.7 144.8 1002 30 2 Image Chart
2021 12 12 09 5.8 144.7 1004 30 2 Image Chart
2021 12 12 12 5.8 144.7 1004 30 2 Image Chart
2021 12 12 15 5.8 144.4 1004 30 2 Image Chart
2021 12 12 18 5.8 143.4 1002 30 2 Image Chart
2021 12 12 21 5.8 143.2 1002 30 2 Image Chart
2021 12 13 00 5.8 142.6 1002 30 2 Image Chart
2021 12 13 03 5.7 142.0 1002 30 2 Image Chart
2021 12 13 06 6.0 140.8 998 35 3 Image Chart
2021 12 13 09 5.9 140.2 998 35 3 Image Chart
2021 12 13 12 6.4 139.7 998 35 3 Image Chart
2021 12 13 15 6.6 139.4 998 35 3 Image Chart
2021 12 13 18 6.9 138.6 992 45 3 Image Chart
2021 12 13 21 7.0 138.1 992 45 3 Image Chart
2021 12 14 00 7.4 136.9 990 50 4 Image Chart
2021 12 14 03 7.4 136.2 990 50 4 Image Chart
2021 12 14 06 7.4 135.6 985 55 4 Image Chart
2021 12 14 09 7.8 135.2 985 55 4 Image Chart
2021 12 14 12 8.4 134.7 985 55 4 Image Chart
2021 12 14 15 9.1 134.2 985 55 4 Image Chart
2021 12 14 18 9.1 133.4 980 60 4 Image Chart
2021 12 14 21 9.1 132.8 980 60 4 Image Chart
2021 12 15 00 8.7 132.3 975 65 5 Image Chart
2021 12 15 03 8.7 131.7 975 65 5 Image Chart
2021 12 15 06 8.9 131.2 975 65 5 Image Chart
2021 12 15 09 8.9 130.6 975 65 5 Image Chart
2021 12 15 12 9.0 130.2 965 75 5 Image Chart
2021 12 15 15 9.2 129.6 965 75 5 Image Chart
2021 12 15 18 9.3 129.1 955 80 5 Image Chart
2021 12 15 21 9.6 128.3 950 85 5 Image Chart
2021 12 16 00 9.7 127.7 925 100 5 Image Chart
2021 12 16 03 9.8 126.9 915 105 5 Image Chart
2021 12 16 06 9.9 126.0 915 105 5 Image Chart
2021 12 16 09 10.0 125.2 925 100 5 Image Chart
2021 12 16 12 10.1 124.2 935 95 5 Image Chart
2021 12 16 15 10.0 123.3 935 95 5 Image Chart
2021 12 16 18 10.2 122.5 950 85 5 Image Chart
2021 12 16 21 10.0 121.9 950 85 5 Image Chart
2021 12 17 00 10.0 121.1 955 80 5 Image Chart
2021 12 17 03 9.8 120.7 955 80 5 Image Chart
2021 12 17 06 10.1 119.9 955 80 5 Image Chart
2021 12 17 09 10.3 119.2 955 80 5 Image Chart
2021 12 17 12 10.4 118.7 955 80 5 Image Chart
2021 12 17 18 11.0 117.3 955 80 5 Image Chart
2021 12 17 21 10.9 116.6 955 80 5 Image Chart
2021 12 18 00 11.0 115.9 950 85 5 Image Chart
2021 12 18 03 11.1 115.3 950 85 5 Image Chart
2021 12 18 06 11.3 114.7 950 85 5 Image Chart
2021 12 18 09 11.6 114.0 950 85 5 Image Chart
2021 12 18 12 11.9 113.4 925 100 5 Image Chart
2021 12 18 15 12.1 112.9 925 100 5 Image Chart
2021 12 18 18 12.6 112.2 915 105 5 Image Chart
2021 12 18 21 12.9 111.7 915 105 5 Image Chart
2021 12 19 00 13.1 111.4 915 105 5 Image Chart
2021 12 19 03 13.6 110.9 915 105 5 Image Chart
2021 12 19 06 14.1 110.6 925 100 5 Image Chart
2021 12 19 09 14.4 110.6 935 95 5 Image Chart
2021 12 19 12 14.7 110.6 940 90 5 Image Chart
2021 12 19 15 15.2 110.6 950 85 5 Image Chart
2021 12 19 18 15.9 110.7 955 80 5 Image Chart
2021 12 19 21 16.4 110.8 965 75 5 Image Chart
2021 12 20 00 17.2 110.8 970 70 5 Image Chart
2021 12 20 03 17.7 111.0 975 65 5 Image Chart
2021 12 20 06 18.0 111.3 985 55 4 Image Chart
2021 12 20 09 18.7 111.5 996 40 3 Image Chart
2021 12 20 12 19.0 112.0 1004 0 2 Image Chart
Japan Meteorological Agency Best Track Data | Correction Date : 2021-12-20
< Typhoon 202121 2021 Season

Help